Time;durP1;ratioP1;P1;durP2;ratioP2;P2;SDS_P1;SDS_P2;PMS_P1;PMS_P2;Temp;Humidity;BMP_temperature;BMP_pressure;BME280_temperature;BME280_humidity;BME280_pressure;Samples;Min_cycle;Max_cycle;Signal;HPM_P1;HPM_P2
2024/04/14 00:00:14;;;;;;;1.47;0.90;;;18.50;98.20;;;;;;5293983;26;20487;-75
2024/04/14 00:02:42;;;;;;;1.43;0.90;;;18.50;98.20;;;;;;5312873;26;20509;-75
2024/04/14 00:05:08;;;;;;;1.50;1.00;;;18.50;98.20;;;;;;5291874;26;20961;-74
2024/04/14 00:07:37;;;;;;;1.47;0.90;;;18.50;98.20;;;;;;5306720;26;21124;-74
2024/04/14 00:10:03;;;;;;;1.47;0.90;;;18.40;98.20;;;;;;5288923;26;20248;-72
2024/04/14 00:12:32;;;;;;;1.50;0.90;;;18.30;98.20;;;;;;5301256;26;20557;-75
2024/04/14 00:14:57;;;;;;;1.50;0.90;;;18.30;98.20;;;;;;5289545;26;20473;-75
2024/04/14 00:17:28;;;;;;;1.50;1.00;;;18.20;98.20;;;;;;5302785;26;20510;-75
2024/04/14 00:19:54;;;;;;;1.50;1.00;;;18.20;98.20;;;;;;5288627;26;20330;-74
2024/04/14 00:22:23;;;;;;;1.50;0.93;;;18.10;98.20;;;;;;5300457;26;20942;-73
2024/04/14 00:24:48;;;;;;;1.50;0.90;;;18.10;98.20;;;;;;5289931;26;20249;-74
2024/04/14 00:27:17;;;;;;;1.50;1.00;;;18.00;98.20;;;;;;5301686;26;20502;-74
2024/04/14 00:29:43;;;;;;;1.50;0.97;;;18.00;98.20;;;;;;5287974;26;20331;-74
2024/04/14 00:32:11;;;;;;;1.47;0.90;;;17.90;98.20;;;;;;5297597;26;21035;-75
2024/04/14 00:34:39;;;;;;;1.47;1.00;;;17.80;98.20;;;;;;5291533;26;20395;-74
2024/04/14 00:37:08;;;;;;;1.47;0.90;;;17.70;98.20;;;;;;5301966;26;20490;-73
2024/04/14 00:39:34;;;;;;;1.47;0.97;;;17.70;98.20;;;;;;5297405;26;20549;-73
2024/04/14 00:42:02;;;;;;;1.50;0.90;;;17.60;98.20;;;;;;5295733;26;20628;-74
2024/04/14 00:44:28;;;;;;;1.50;1.00;;;17.50;98.20;;;;;;5304004;26;20646;-74
2024/04/14 00:46:57;;;;;;;1.50;1.00;;;17.40;98.20;;;;;;5297226;26;20633;-75
2024/04/14 00:49:23;;;;;;;1.47;0.90;;;17.40;97.80;;;;;;5298594;26;20248;-75
2024/04/14 00:51:55;;;;;;;1.50;1.00;;;17.30;97.80;;;;;;5293580;26;20501;-75
2024/04/14 00:54:22;;;;;;;1.50;0.93;;;17.20;97.40;;;;;;5312726;26;20474;-74
2024/04/14 00:56:50;;;;;;;1.47;0.90;;;17.20;95.80;;;;;;5295867;26;20510;-74
2024/04/14 00:59:17;;;;;;;1.50;1.00;;;17.10;96.40;;;;;;5302612;26;20484;-74
2024/04/14 01:01:45;;;;;;;1.50;0.90;;;17.10;96.00;;;;;;5293954;26;21090;-74
2024/04/14 01:04:12;;;;;;;1.50;1.00;;;17.00;95.60;;;;;;5309850;26;20471;-75
2024/04/14 01:06:40;;;;;;;1.50;1.00;;;16.90;96.00;;;;;;5294966;26;20533;-75
2024/04/14 01:09:09;;;;;;;1.47;0.90;;;16.80;95.60;;;;;;5311526;26;20479;-74
2024/04/14 01:11:37;;;;;;;1.50;1.00;;;16.80;95.60;;;;;;5299802;26;20502;-74
2024/04/14 01:14:05;;;;;;;1.50;1.00;;;16.70;95.60;;;;;;5313202;26;20539;-75
2024/04/14 01:16:36;;;;;;;1.50;0.97;;;16.60;95.80;;;;;;5290112;26;20562;-74
2024/04/14 01:19:03;;;;;;;1.50;1.00;;;16.60;95.90;;;;;;5313216;26;20483;-75
2024/04/14 01:21:31;;;;;;;1.47;1.00;;;16.60;96.00;;;;;;5291140;26;20577;-74
2024/04/14 01:23:57;;;;;;;1.50;0.97;;;16.50;95.00;;;;;;5318221;26;20594;-74
2024/04/14 01:26:28;;;;;;;1.50;0.90;;;16.50;95.40;;;;;;5298050;26;20493;-74
2024/04/14 01:28:54;;;;;;;1.50;1.00;;;16.40;96.60;;;;;;5310357;26;20359;-72
2024/04/14 01:31:23;;;;;;;1.47;0.90;;;16.40;97.20;;;;;;5285426;26;20877;-75
2024/04/14 01:33:50;;;;;;;1.50;1.00;;;16.30;97.60;;;;;;5312972;26;20292;-72
2024/04/14 01:36:19;;;;;;;1.50;1.00;;;16.20;98.20;;;;;;5281527;26;20605;-75
2024/04/14 01:38:44;;;;;;;1.50;0.90;;;16.20;98.20;;;;;;5302861;26;20536;-74
2024/04/14 01:41:13;;;;;;;1.50;1.00;;;16.10;98.20;;;;;;5282071;26;20565;-74
2024/04/14 01:43:41;;;;;;;1.50;1.00;;;16.10;98.20;;;;;;5315376;26;20257;-73
2024/04/14 01:46:10;;;;;;;1.50;0.93;;;16.10;98.20;;;;;;5282174;26;20593;-74
2024/04/14 01:48:36;;;;;;;1.50;1.00;;;16.00;98.20;;;;;;5311403;26;21251;-74
2024/04/14 01:51:04;;;;;;;1.47;0.90;;;16.00;98.20;;;;;;5294161;26;20559;-74
2024/04/14 01:53:30;;;;;;;1.50;1.00;;;15.90;98.20;;;;;;5323544;26;20240;-74
2024/04/14 01:55:58;;;;;;;1.50;1.00;;;15.90;98.20;;;;;;5295071;26;20578;-73
2024/04/14 01:58:24;;;;;;;1.40;0.97;;;15.80;98.20;;;;;;5323775;26;20248;-74
2024/04/14 02:00:55;;;;;;;1.50;0.90;;;15.70;98.20;;;;;;5293383;26;20591;-74
2024/04/14 02:03:21;;;;;;;1.50;1.00;;;15.70;98.20;;;;;;5323645;26;20397;-75
2024/04/14 02:05:58;;;;;;;1.47;0.90;;;15.60;98.20;;;;;;5291236;26;20471;-74
2024/04/14 02:08:23;;;;;;;1.50;1.00;;;15.60;98.20;;;;;;5288964;26;20244;-75
2024/04/14 02:10:52;;;;;;;1.50;1.00;;;15.50;98.20;;;;;;5293029;26;21172;-74
2024/04/14 02:13:19;;;;;;;1.47;1.00;;;15.50;97.80;;;;;;5326079;26;20872;-74
2024/04/14 02:15:47;;;;;;;1.50;1.00;;;15.40;97.40;;;;;;5303624;26;20511;-73
2024/04/14 02:18:16;;;;;;;1.50;1.00;;;15.40;97.30;;;;;;5299542;26;20690;-74
2024/04/14 02:20:45;;;;;;;1.43;1.00;;;15.30;97.40;;;;;;5302126;26;20479;-74
2024/04/14 02:23:11;;;;;;;1.50;1.00;;;15.30;96.50;;;;;;5290548;26;20939;-74
2024/04/14 02:25:39;;;;;;;1.50;1.00;;;15.20;95.60;;;;;;5303163;26;20475;-74
2024/04/14 02:28:06;;;;;;;1.50;1.00;;;15.10;96.50;;;;;;5314672;26;20358;-74
2024/04/14 02:30:34;;;;;;;1.43;1.00;;;15.10;95.70;;;;;;5302051;26;20919;-73
2024/04/14 02:33:00;;;;;;;1.50;1.00;;;15.00;95.40;;;;;;5317623;26;20510;-74
2024/04/14 02:35:31;;;;;;;1.47;0.90;;;15.00;95.80;;;;;;5303163;26;20867;-75
2024/04/14 02:37:57;;;;;;;1.50;1.00;;;15.00;95.80;;;;;;5314618;26;20776;-74
2024/04/14 02:40:25;;;;;;;1.50;1.10;;;15.00;94.30;;;;;;5302730;26;20480;-74
2024/04/14 02:42:51;;;;;;;1.50;1.10;;;14.90;94.60;;;;;;5316624;26;20275;-74
2024/04/14 02:45:20;;;;;;;1.50;1.00;;;14.80;95.00;;;;;;5302028;26;20471;-74
2024/04/14 02:47:45;;;;;;;1.50;1.00;;;14.80;95.30;;;;;;5318030;26;20759;-74
2024/04/14 02:50:14;;;;;;;1.50;1.00;;;14.80;95.20;;;;;;5298150;26;21087;-74
2024/04/14 02:52:42;;;;;;;1.50;1.00;;;14.70;94.60;;;;;;5316294;26;20820;-74
2024/04/14 02:55:11;;;;;;;1.50;1.00;;;14.70;94.60;;;;;;5303318;26;20873;-73
2024/04/14 02:57:36;;;;;;;1.50;1.10;;;14.60;94.30;;;;;;5314267;26;21186;-74
2024/04/14 03:00:05;;;;;;;1.50;1.00;;;14.50;94.50;;;;;;5304519;26;20467;-74
2024/04/14 03:02:31;;;;;;;1.50;1.00;;;14.50;94.70;;;;;;5314631;26;20283;-74
2024/04/14 03:04:59;;;;;;;1.50;1.00;;;14.50;94.90;;;;;;5304949;26;20472;-74
2024/04/14 03:07:27;;;;;;;1.50;1.10;;;14.40;95.10;;;;;;5312940;26;20360;-74
2024/04/14 03:09:58;;;;;;;1.47;1.00;;;14.40;94.30;;;;;;5307765;26;20463;-74
2024/04/14 03:12:24;;;;;;;1.50;1.10;;;14.40;94.90;;;;;;5311311;26;20556;-74
2024/04/14 03:14:52;;;;;;;1.50;1.10;;;14.40;95.50;;;;;;5303292;26;20468;-74
2024/04/14 03:17:20;;;;;;;1.50;1.00;;;14.40;96.10;;;;;;5310221;26;20773;-74
2024/04/14 03:19:53;;;;;;;1.50;1.00;;;14.30;96.30;;;;;;5307065;26;20471;-74
2024/04/14 03:22:19;;;;;;;1.50;1.00;;;14.30;96.60;;;;;;5311125;26;21027;-74
2024/04/14 03:24:47;;;;;;;1.50;1.00;;;14.30;96.90;;;;;;5304055;26;20613;-74
2024/04/14 03:27:16;;;;;;;1.50;0.90;;;14.20;97.50;;;;;;5310924;26;20391;-74
2024/04/14 03:29:47;;;;;;;1.50;1.00;;;14.30;97.80;;;;;;5304404;26;20892;-72
2024/04/14 03:32:14;;;;;;;1.50;1.00;;;14.20;97.60;;;;;;5308479;26;20581;-74
2024/04/14 03:34:43;;;;;;;1.50;1.00;;;14.20;97.80;;;;;;5307152;26;20532;-74
2024/04/14 03:37:13;;;;;;;1.47;0.97;;;14.10;97.80;;;;;;5310440;26;20557;-74
2024/04/14 03:39:41;;;;;;;2.70;2.50;;;14.10;98.20;;;;;;5303622;26;21116;-74
2024/04/14 03:42:10;;;;;;;1.50;1.00;;;14.00;98.20;;;;;;5309260;26;20628;-72
2024/04/14 03:44:40;;;;;;;1.50;1.00;;;14.00;98.20;;;;;;5306002;26;20583;-72
2024/04/14 03:47:09;;;;;;;1.50;1.00;;;14.00;98.20;;;;;;5307497;26;20509;-74
2024/04/14 03:49:37;;;;;;;1.50;1.10;;;14.00;98.20;;;;;;5305588;26;20598;-74
2024/04/14 03:52:04;;;;;;;1.50;1.00;;;14.00;98.20;;;;;;5308560;26;20743;-74
2024/04/14 03:54:32;;;;;;;1.50;1.00;;;14.00;98.20;;;;;;5305284;26;22216;-74
2024/04/14 03:56:59;;;;;;;1.50;1.00;;;14.00;98.20;;;;;;5307242;26;20954;-74
2024/04/14 03:59:27;;;;;;;1.50;1.10;;;14.10;98.20;;;;;;5303703;26;20491;-75
2024/04/14 04:01:56;;;;;;;1.50;1.00;;;14.10;98.20;;;;;;5293984;26;20632;-74
2024/04/14 04:04:24;;;;;;;1.50;1.00;;;14.10;98.20;;;;;;5296175;26;20513;-74
2024/04/14 04:06:50;;;;;;;1.50;1.00;;;14.20;98.20;;;;;;5291790;26;20610;-74
2024/04/14 04:09:19;;;;;;;1.50;1.10;;;14.20;98.20;;;;;;5301518;26;20471;-75
2024/04/14 04:11:44;;;;;;;1.50;1.00;;;14.20;98.20;;;;;;5297878;26;20478;-74
2024/04/14 04:14:13;;;;;;;1.50;1.00;;;14.20;98.20;;;;;;5301550;26;21061;-75
2024/04/14 04:16:38;;;;;;;1.50;1.00;;;14.10;98.20;;;;;;5295659;26;20754;-74
2024/04/14 04:19:09;;;;;;;1.50;0.90;;;14.10;98.20;;;;;;5308801;26;20479;-75
2024/04/14 04:21:35;;;;;;;1.47;1.00;;;14.10;98.20;;;;;;5289733;26;20801;-75
2024/04/14 04:24:04;;;;;;;1.50;1.03;;;14.10;98.20;;;;;;5305608;26;20878;-74
2024/04/14 04:26:30;;;;;;;1.47;0.90;;;14.00;98.20;;;;;;5283542;26;20497;-75
2024/04/14 04:28:58;;;;;;;1.50;1.00;;;14.10;98.20;;;;;;5306427;26;20472;-74
2024/04/14 04:31:24;;;;;;;1.50;1.00;;;14.00;98.20;;;;;;5285898;26;20263;-75
2024/04/14 04:33:53;;;;;;;1.43;1.00;;;14.00;98.20;;;;;;5307038;26;20604;-75
2024/04/14 04:36:21;;;;;;;1.50;1.00;;;14.00;98.20;;;;;;5285810;26;20866;-76
2024/04/14 04:38:49;;;;;;;1.50;1.00;;;14.00;98.20;;;;;;5307362;26;21363;-76
2024/04/14 04:41:18;;;;;;;1.50;1.10;;;14.00;98.20;;;;;;5286465;26;20612;-75
2024/04/14 04:43:44;;;;;;;1.50;1.00;;;13.90;98.20;;;;;;5313762;26;20534;-74
2024/04/14 04:46:12;;;;;;;1.43;1.00;;;13.90;98.20;;;;;;5278912;26;20938;-75
2024/04/14 04:48:38;;;;;;;1.50;1.10;;;13.90;98.20;;;;;;5313647;26;20253;-74
2024/04/14 04:51:07;;;;;;;1.47;1.00;;;13.90;98.20;;;;;;5285650;26;20616;-74
2024/04/14 04:53:36;;;;;;;1.50;1.00;;;13.90;98.20;;;;;;5313398;26;20380;-73
2024/04/14 04:56:04;;;;;;;1.50;1.00;;;13.90;98.20;;;;;;5284938;26;20565;-74
2024/04/14 04:58:30;;;;;;;1.50;1.00;;;13.90;98.20;;;;;;5316128;26;20789;-74
2024/04/14 05:00:59;;;;;;;1.40;1.00;;;13.90;98.20;;;;;;5279118;26;20572;-75
2024/04/14 05:03:25;;;;;;;1.43;1.00;;;13.90;98.20;;;;;;5317821;26;20320;-73
2024/04/14 05:05:58;;;;;;;1.50;1.00;;;14.00;98.20;;;;;;5292464;26;21081;-74
2024/04/14 05:08:24;;;;;;;1.50;1.00;;;14.00;98.20;;;;;;5315771;26;20902;-74
2024/04/14 05:10:55;;;;;;;1.50;1.00;;;14.00;98.20;;;;;;5282053;26;20539;-74
2024/04/14 05:13:24;;;;;;;1.50;1.10;;;14.00;98.20;;;;;;5314901;26;21054;-72
2024/04/14 05:15:50;;;;;;;1.50;1.00;;;14.00;98.20;;;;;;5277043;26;20834;-73
2024/04/14 05:18:19;;;;;;;1.50;1.00;;;14.00;98.20;;;;;;5318619;26;20569;-73
2024/04/14 05:20:45;;;;;;;1.50;1.00;;;14.00;98.20;;;;;;5293978;26;22525;-72
2024/04/14 05:23:14;;;;;;;1.50;1.00;;;14.10;98.20;;;;;;5308452;26;20481;-73
2024/04/14 05:25:40;;;;;;;1.43;1.00;;;14.10;98.20;;;;;;5288863;26;20563;-73
2024/04/14 05:28:11;;;;;;;1.43;1.00;;;14.10;98.20;;;;;;5317673;26;20577;-74
2024/04/14 05:30:39;;;;;;;1.50;1.00;;;14.10;98.20;;;;;;5282327;26;20778;-73
2024/04/14 05:33:08;;;;;;;1.50;0.90;;;14.10;98.20;;;;;;5312089;26;20513;-74
2024/04/14 05:35:34;;;;;;;1.47;1.00;;;14.20;98.20;;;;;;5285185;26;20631;-73
2024/04/14 05:38:02;;;;;;;1.50;1.00;;;14.20;98.20;;;;;;5323893;26;20497;-72
2024/04/14 05:40:28;;;;;;;1.40;0.90;;;14.20;98.20;;;;;;5291890;26;21092;-73
2024/04/14 05:42:56;;;;;;;1.50;0.97;;;14.20;98.20;;;;;;5315494;26;20593;-73
2024/04/14 05:45:25;;;;;;;1.50;1.00;;;14.20;98.20;;;;;;5289219;26;20330;-73
2024/04/14 05:47:55;;;;;;;1.50;1.00;;;14.20;98.20;;;;;;5305370;26;20503;-73
2024/04/14 05:50:21;;;;;;;1.50;1.00;;;14.30;98.20;;;;;;5291056;26;20479;-73
2024/04/14 05:52:50;;;;;;;1.47;1.00;;;14.40;98.20;;;;;;5315267;26;20501;-73
2024/04/14 05:55:16;;;;;;;1.50;1.00;;;14.40;98.20;;;;;;5286086;26;20530;-73
2024/04/14 06:00:11;;;;;;;1.50;1.10;;;14.40;98.20;;;;;;5334047;21;20822;-73
2024/04/14 06:02:39;;;;;;;1.50;1.00;;;14.50;98.20;;;;;;5324289;26;20715;-73
2024/04/14 06:05:08;;;;;;;1.50;0.90;;;14.50;98.20;;;;;;5323198;26;20532;-72
2024/04/14 06:07:34;;;;;;;1.50;0.90;;;14.60;98.20;;;;;;5326310;26;20569;-73
2024/04/14 06:10:02;;;;;;;1.50;1.00;;;14.70;98.20;;;;;;5304429;26;20606;-72
2024/04/14 06:12:28;;;;;;;1.50;1.00;;;14.70;98.20;;;;;;5320765;26;20932;-72
2024/04/14 06:14:57;;;;;;;1.50;0.90;;;14.80;98.20;;;;;;5316358;26;20477;-73
2024/04/14 06:17:22;;;;;;;1.47;1.00;;;14.90;98.20;;;;;;5315778;26;20263;-73
2024/04/14 06:19:53;;;;;;;1.50;1.00;;;14.90;98.20;;;;;;5307894;26;20811;-72
2024/04/14 06:22:19;;;;;;;1.50;0.93;;;15.00;98.20;;;;;;5321396;26;20325;-72
2024/04/14 06:24:48;;;;;;;1.50;1.00;;;15.00;98.20;;;;;;5310382;26;20479;-73
2024/04/14 06:27:14;;;;;;;1.50;1.00;;;15.00;98.20;;;;;;5307612;26;20264;-72
2024/04/14 06:29:42;;;;;;;1.50;0.90;;;15.10;98.20;;;;;;5309437;26;21166;-74
2024/04/14 06:32:08;;;;;;;1.50;1.00;;;15.20;98.20;;;;;;5312130;26;20506;-73
2024/04/14 06:34:36;;;;;;;1.50;1.00;;;15.30;98.20;;;;;;5311915;26;20812;-73
2024/04/14 06:37:05;;;;;;;1.50;0.90;;;15.40;98.20;;;;;;5308494;26;20604;-73
2024/04/14 06:39:33;;;;;;;1.50;1.10;;;15.50;98.20;;;;;;5315981;26;20606;-74
2024/04/14 06:41:59;;;;;;;1.50;0.90;;;15.50;98.20;;;;;;5310844;26;20644;-73
2024/04/14 06:44:27;;;;;;;1.50;1.00;;;15.60;98.20;;;;;;5314332;26;20487;-73
2024/04/14 06:46:53;;;;;;;1.43;1.00;;;15.60;98.20;;;;;;5306048;26;20356;-73
2024/04/14 06:49:22;;;;;;;1.50;1.00;;;15.70;98.20;;;;;;5313486;26;20495;-73
2024/04/14 06:51:47;;;;;;;1.47;0.90;;;15.70;98.20;;;;;;5304254;26;20886;-73
2024/04/14 06:54:18;;;;;;;1.50;0.90;;;15.80;98.20;;;;;;5315720;26;20491;-74
2024/04/14 06:56:44;;;;;;;1.40;0.90;;;15.90;98.20;;;;;;5303656;26;20259;-73
2024/04/14 06:59:12;;;;;;;1.47;1.00;;;16.00;98.20;;;;;;5308134;26;22209;-75
2024/04/14 07:01:40;;;;;;;1.47;1.00;;;16.10;98.20;;;;;;5300554;26;20703;-74
2024/04/14 07:04:08;;;;;;;1.47;0.90;;;16.10;98.20;;;;;;5316652;26;20529;-72
2024/04/14 07:06:34;;;;;;;1.50;1.00;;;16.20;98.20;;;;;;5301394;26;20529;-73
2024/04/14 07:09:02;;;;;;;1.50;0.90;;;16.30;98.20;;;;;;5307691;26;20830;-73
2024/04/14 07:11:31;;;;;;;1.50;1.00;;;16.30;98.20;;;;;;5301078;26;20593;-72
2024/04/14 07:13:59;;;;;;;1.50;1.30;;;16.30;98.20;;;;;;5327946;26;20591;-72
2024/04/14 07:16:26;;;;;;;1.50;0.90;;;16.30;98.20;;;;;;5297386;26;20494;-74
2024/04/14 07:18:54;;;;;;;1.50;1.00;;;16.40;98.20;;;;;;5331586;26;20487;-72
2024/04/14 07:21:20;;;;;;;1.47;0.90;;;16.50;98.20;;;;;;5299900;26;20490;-73
2024/04/14 07:23:49;;;;;;;1.47;0.90;;;16.50;98.20;;;;;;5325224;26;20944;-73
2024/04/14 07:26:14;;;;;;;1.50;1.00;;;16.60;98.20;;;;;;5292788;26;20581;-72
2024/04/14 07:28:45;;;;;;;1.50;1.00;;;16.60;98.20;;;;;;5318735;26;20607;-72
2024/04/14 07:31:11;;;;;;;1.50;0.90;;;16.50;98.20;;;;;;5304374;26;20267;-74
2024/04/14 07:33:40;;;;;;;1.47;1.00;;;16.50;98.20;;;;;;5329672;26;20490;-73
2024/04/14 07:36:06;;;;;;;1.50;1.00;;;16.50;98.20;;;;;;5296314;26;20326;-73
2024/04/14 07:38:34;;;;;;;1.50;0.90;;;16.60;98.20;;;;;;5328463;26;20952;-73
2024/04/14 07:41:00;;;;;;;1.50;1.00;;;16.70;98.20;;;;;;5301566;26;20805;-73
2024/04/14 07:43:29;;;;;;;1.47;0.90;;;16.80;98.20;;;;;;5332208;26;20475;-73
2024/04/14 07:45:57;;;;;;;1.47;0.90;;;16.80;98.20;;;;;;5295348;26;20359;-73
2024/04/14 07:48:25;;;;;;;1.47;0.90;;;16.80;98.20;;;;;;5328796;26;20651;-72
2024/04/14 07:50:51;;;;;;;1.50;1.00;;;17.00;98.20;;;;;;5292913;26;21126;-72
2024/04/14 07:53:19;;;;;;;1.50;0.90;;;17.20;98.20;;;;;;5329850;26;20483;-72
2024/04/14 07:55:45;;;;;;;1.50;0.90;;;17.30;98.20;;;;;;5300205;26;20845;-73
2024/04/14 07:58:13;;;;;;;1.50;0.97;;;17.40;98.20;;;;;;5325304;26;21783;-72
2024/04/14 08:00:39;;;;;;;1.50;1.00;;;17.60;98.20;;;;;;5298655;26;20334;-73
2024/04/14 08:03:10;;;;;;;1.50;0.90;;;17.80;98.20;;;;;;5326252;26;20576;-73
2024/04/14 08:05:36;;;;;;;1.50;0.90;;;17.90;98.20;;;;;;5293594;26;20241;-73
2024/04/14 08:08:06;;;;;;;1.50;0.90;;;18.00;98.20;;;;;;5315143;26;20588;-72
2024/04/14 08:10:31;;;;;;;1.50;0.90;;;18.10;98.00;;;;;;5306286;26;20275;-73
2024/04/14 08:13:00;;;;;;;1.50;0.90;;;18.10;97.80;;;;;;5319469;26;20517;-73
2024/04/14 08:15:26;;;;;;;1.50;0.90;;;18.20;97.60;;;;;;5301420;26;20248;-73
2024/04/14 08:17:56;;;;;;;1.50;0.90;;;18.10;97.00;;;;;;5319478;26;21366;-73
2024/04/14 08:20:25;;;;;;;1.50;0.90;;;18.00;97.80;;;;;;5306004;26;20256;-73
2024/04/14 08:22:53;;;;;;;1.50;1.00;;;18.00;98.20;;;;;;5326898;26;21093;-73
2024/04/14 08:25:19;;;;;;;1.40;0.90;;;18.10;98.20;;;;;;5301038;26;20527;-73
2024/04/14 08:27:47;;;;;;;1.50;1.00;;;18.20;98.20;;;;;;5314838;26;20857;-73
2024/04/14 08:30:13;;;;;;;1.50;0.90;;;18.30;97.60;;;;;;5300288;26;20300;-72
2024/04/14 08:32:42;;;;;;;1.47;0.90;;;18.40;97.50;;;;;;5322170;26;20517;-73
2024/04/14 08:35:07;;;;;;;1.50;0.90;;;18.60;97.20;;;;;;5305781;26;20248;-73
2024/04/14 08:37:39;;;;;;;1.43;0.90;;;18.80;95.60;;;;;;5315179;26;20549;-71
2024/04/14 08:40:05;;;;;;;1.50;0.90;;;18.80;94.10;;;;;;5308490;26;20349;-72
2024/04/14 08:42:36;;;;;;;1.40;0.90;;;18.80;94.90;;;;;;5304871;26;20569;-73
2024/04/14 08:45:04;;;;;;;1.50;0.90;;;19.00;94.20;;;;;;5301250;26;20479;-74
2024/04/14 08:47:36;;;;;;;1.50;0.90;;;19.10;93.90;;;;;;5326517;26;20813;-73
2024/04/14 08:50:04;;;;;;;1.50;1.00;;;19.30;93.70;;;;;;5306617;26;20622;-73
2024/04/14 08:52:39;;;;;;;1.43;0.90;;;19.50;93.40;;;;;;5319023;26;20484;-74
2024/04/14 08:55:09;;;;;;;1.47;0.90;;;19.60;91.70;;;;;;5306162;26;20554;-74
2024/04/14 08:57:39;;;;;;;1.50;0.90;;;19.80;92.10;;;;;;5316834;26;20617;-73
2024/04/14 09:00:10;;;;;;;1.50;0.90;;;19.90;90.30;;;;;;5294854;26;20526;-73
2024/04/14 09:02:42;;;;;;;1.60;1.37;;;20.00;89.70;;;;;;5320941;26;20502;-73
2024/04/14 09:05:09;;;;;;;1.50;0.90;;;20.10;90.40;;;;;;5299114;26;20538;-73
2024/04/14 09:07:39;;;;;;;1.47;0.90;;;20.20;89.30;;;;;;5318210;26;20553;-73
2024/04/14 09:10:08;;;;;;;1.50;0.90;;;20.30;88.40;;;;;;5307569;26;20536;-72
2024/04/14 09:12:40;;;;;;;1.50;0.90;;;20.50;88.40;;;;;;5321339;26;20506;-73
2024/04/14 09:15:08;;;;;;;1.73;1.00;;;20.70;87.50;;;;;;5305096;26;20468;-73
2024/04/14 09:17:55;;;;;;;1.50;0.90;;;20.90;87.10;;;;;;5318156;26;21063;-73
2024/04/14 09:20:34;;;;;;;1.47;0.90;;;21.20;84.90;;;;;;5297418;26;20491;-73
2024/04/14 09:23:04;;;;;;;1.50;0.90;;;21.40;84.60;;;;;;5322441;26;20535;-73
2024/04/14 09:25:45;;;;;;;1.50;0.90;;;21.70;84.30;;;;;;5299214;26;20471;-73
2024/04/14 09:28:29;;;;;;;1.47;0.90;;;21.80;82.90;;;;;;5261298;26;20531;-73
2024/04/14 09:31:06;;;;;;;1.50;0.90;;;21.80;82.80;;;;;;5291787;26;20475;-74
2024/04/14 09:39:30;;;;;;;1.50;0.80;;;22.00;80.60;;;;;;5303840;26;20526;-74
2024/04/14 09:45:33;;;;;;;1.50;0.83;;;22.10;79.50;;;;;;5230250;26;20523;-73
2024/04/14 09:48:01;;;;;;;1.50;0.83;;;22.00;82.00;;;;;;5317928;26;20532;-72
2024/04/14 09:51:17;;;;;;;1.50;0.93;;;22.00;81.90;;;;;;5297067;26;20487;-73
2024/04/14 09:54:20;;;;;;;1.47;0.90;;;21.90;80.70;;;;;;5294194;26;20599;-73
2024/04/14 09:56:46;;;;;;;1.40;0.80;;;21.80;80.80;;;;;;5301153;26;20496;-72
2024/04/14 09:59:14;;;;;;;1.50;0.90;;;21.50;82.40;;;;;;5324389;26;21049;-74
2024/04/14 10:01:46;;;;;;;1.50;0.90;;;21.30;81.70;;;;;;5302457;26;20856;-74
2024/04/14 10:04:15;;;;;;;1.47;0.90;;;21.20;82.40;;;;;;5314822;26;20846;-74
2024/04/14 10:06:42;;;;;;;1.50;0.90;;;21.10;82.50;;;;;;5298366;26;20497;-74
2024/04/14 10:09:11;;;;;;;1.47;0.90;;;21.00;84.00;;;;;;5312586;26;20753;-74
2024/04/14 10:11:38;;;;;;;1.47;0.90;;;21.00;83.00;;;;;;5296108;26;20482;-73
2024/04/14 10:14:07;;;;;;;1.47;0.90;;;20.90;83.50;;;;;;5313858;26;20750;-74
2024/04/14 10:16:33;;;;;;;1.47;0.90;;;20.80;82.30;;;;;;5292845;26;20620;-74
2024/04/14 10:19:07;;;;;;;1.50;0.90;;;20.80;83.60;;;;;;5314371;26;20481;-73
2024/04/14 10:21:33;;;;;;;1.47;0.90;;;20.90;83.50;;;;;;5295364;26;20305;-73
2024/04/14 10:24:04;;;;;;;1.50;0.90;;;20.90;82.50;;;;;;5315100;26;20467;-74
2024/04/14 10:26:31;;;;;;;1.50;0.90;;;20.90;82.90;;;;;;5301207;26;20961;-73
2024/04/14 10:29:00;;;;;;;1.47;0.90;;;20.90;83.40;;;;;;5318570;26;21401;-74
2024/04/14 10:31:27;;;;;;;1.43;0.87;;;20.90;83.70;;;;;;5285939;26;20530;-73
2024/04/14 10:34:10;;;;;;;1.47;0.90;;;21.00;83.70;;;;;;5307542;26;20527;-72
2024/04/14 10:36:37;;;;;;;1.50;0.90;;;21.00;83.70;;;;;;5300856;26;20494;-73
2024/04/14 10:39:09;;;;;;;1.47;0.90;;;21.00;83.30;;;;;;5320514;26;20491;-72
2024/04/14 10:41:36;;;;;;;1.50;0.90;;;21.00;83.10;;;;;;5295654;26;20577;-72
2024/04/14 10:44:05;;;;;;;1.47;0.90;;;21.00;83.00;;;;;;5314183;26;20531;-72
2024/04/14 10:46:31;;;;;;;1.50;0.90;;;20.90;82.50;;;;;;5298971;26;20537;-73
2024/04/14 10:49:00;;;;;;;1.47;0.80;;;20.90;83.90;;;;;;5323061;26;20531;-72
2024/04/14 10:51:29;;;;;;;1.47;0.90;;;20.90;84.20;;;;;;5303010;26;20480;-72
2024/04/14 10:53:59;;;;;;;1.43;0.90;;;20.80;83.00;;;;;;5319009;26;20479;-73
2024/04/14 10:56:25;;;;;;;1.43;0.90;;;20.70;83.20;;;;;;5294602;26;21075;-74
2024/04/14 10:58:54;;;;;;;1.47;0.90;;;20.60;83.80;;;;;;5316810;26;20553;-72
2024/04/14 11:01:20;;;;;;;1.50;0.90;;;20.50;84.60;;;;;;5294878;26;20510;-73
2024/04/14 11:03:49;;;;;;;1.47;0.90;;;20.50;84.50;;;;;;5323957;26;20465;-74
2024/04/14 11:06:16;;;;;;;1.50;0.90;;;20.20;84.50;;;;;;5293167;26;20634;-72
2024/04/14 11:08:49;;;;;;;1.50;0.90;;;20.00;84.50;;;;;;5320999;26;20516;-72
2024/04/14 11:11:15;;;;;;;1.50;0.90;;;19.90;86.10;;;;;;5292671;26;20545;-72
2024/04/14 11:13:45;;;;;;;1.50;0.90;;;20.00;86.30;;;;;;5321831;26;20991;-72
2024/04/14 11:16:11;;;;;;;1.47;0.90;;;19.90;85.70;;;;;;5296280;26;20513;-73
2024/04/14 11:18:40;;;;;;;1.43;0.90;;;20.00;85.80;;;;;;5333565;26;20523;-73
2024/04/14 11:21:06;;;;;;;1.47;0.90;;;20.10;85.50;;;;;;5289730;26;20310;-74
2024/04/14 11:23:34;;;;;;;1.47;0.90;;;20.20;85.40;;;;;;5326882;26;20463;-73
2024/04/14 11:26:03;;;;;;;1.47;0.90;;;20.40;85.60;;;;;;5287036;26;20599;-73
2024/04/14 11:28:32;;;;;;;1.50;0.90;;;20.40;83.90;;;;;;5327550;26;20530;-73
2024/04/14 11:30:58;;;;;;;1.50;0.90;;;20.40;83.90;;;;;;5285746;26;20485;-72
2024/04/14 11:33:27;;;;;;;1.47;0.90;;;20.30;85.60;;;;;;5318662;26;20531;-73
2024/04/14 11:35:56;;;;;;;1.47;0.90;;;20.30;84.30;;;;;;5287407;26;20232;-74
2024/04/14 11:38:25;;;;;;;1.50;0.90;;;20.40;83.90;;;;;;5326558;26;20823;-72
2024/04/14 11:40:51;;;;;;;1.43;0.90;;;20.30;84.80;;;;;;5288205;26;21048;-72
2024/04/14 11:43:23;;;;;;;1.43;0.90;;;20.30;84.60;;;;;;5331505;26;20526;-71
2024/04/14 11:45:50;;;;;;;1.47;0.90;;;20.30;84.40;;;;;;5281114;26;20479;-71
2024/04/14 11:48:20;;;;;;;1.47;0.90;;;20.40;84.60;;;;;;5328737;26;20839;-71
2024/04/14 11:50:45;;;;;;;1.43;0.90;;;20.50;83.70;;;;;;5296160;26;21035;-71
2024/04/14 11:53:14;;;;;;;1.50;0.90;;;20.70;83.60;;;;;;5260715;26;20534;-71
2024/04/14 11:55:40;;;;;;;1.50;0.90;;;20.80;84.10;;;;;;5296672;26;20772;-71
2024/04/14 11:58:11;;;;;;;1.50;0.87;;;21.00;83.60;;;;;;5307136;26;20500;-71
2024/04/14 12:00:40;;;;;;;1.47;0.90;;;21.00;82.70;;;;;;5293581;26;20940;-71
2024/04/14 12:03:09;;;;;;;1.50;0.90;;;21.30;83.40;;;;;;5313651;26;20988;-72
2024/04/14 12:05:35;;;;;;;1.43;0.90;;;21.50;81.20;;;;;;5297060;26;21356;-71
2024/04/14 12:08:04;;;;;;;1.47;0.90;;;21.80;79.80;;;;;;5317113;26;20608;-72
2024/04/14 12:10:30;;;;;;;1.40;0.90;;;21.90;80.60;;;;;;5295371;26;20523;-71
2024/04/14 12:12:59;;;;;;;1.47;0.90;;;22.10;79.10;;;;;;5304085;26;20642;-71
2024/04/14 12:15:26;;;;;;;1.47;0.90;;;22.10;79.70;;;;;;5295035;26;20471;-72
2024/04/14 12:17:57;;;;;;;1.43;0.90;;;22.00;80.10;;;;;;5312210;26;20491;-71
2024/04/14 12:20:23;;;;;;;1.47;0.90;;;21.50;79.30;;;;;;5293471;26;20483;-71
2024/04/14 12:22:52;;;;;;;1.43;0.90;;;21.20;79.80;;;;;;5322411;26;20555;-72
2024/04/14 12:25:19;;;;;;;1.50;0.90;;;21.10;80.30;;;;;;5295347;26;20242;-72
2024/04/14 12:27:47;;;;;;;1.50;1.00;;;21.00;80.10;;;;;;5306351;26;20557;-72
2024/04/14 12:30:13;;;;;;;1.47;0.80;;;20.70;80.70;;;;;;5292588;26;20921;-72
2024/04/14 12:32:43;;;;;;;1.43;0.90;;;20.70;82.20;;;;;;5290655;26;20487;-71
2024/04/14 12:35:12;;;;;;;1.47;0.87;;;20.90;81.70;;;;;;5284281;26;20545;-72
2024/04/14 12:37:40;;;;;;;1.47;0.80;;;21.20;81.70;;;;;;5292445;26;21138;-72
2024/04/14 12:40:08;;;;;;;1.47;0.90;;;21.50;81.70;;;;;;5281703;26;20491;-72
2024/04/14 12:42:36;;;;;;;1.47;0.80;;;22.00;80.30;;;;;;5303941;26;21090;-71
2024/04/14 12:45:03;;;;;;;1.50;0.83;;;22.40;78.30;;;;;;5295941;26;20487;-71
2024/04/14 12:47:31;;;;;;;1.50;0.90;;;22.70;78.80;;;;;;5309303;26;20493;-72
2024/04/14 12:49:57;;;;;;;1.50;0.90;;;22.90;76.00;;;;;;5291478;26;21004;-71
2024/04/14 12:52:28;;;;;;;1.47;0.90;;;23.30;76.20;;;;;;5308080;26;20485;-72
2024/04/14 12:54:54;;;;;;;1.50;0.90;;;23.20;75.10;;;;;;5303293;26;20236;-72
2024/04/14 12:57:23;;;;;;;1.40;0.87;;;23.10;75.50;;;;;;5308432;26;20550;-72
2024/04/14 12:59:49;;;;;;;1.40;0.80;;;22.90;75.70;;;;;;5301369;26;22498;-72
2024/04/14 13:02:17;;;;;;;1.50;0.90;;;22.60;77.10;;;;;;5306245;26;20509;-72
2024/04/14 13:04:45;;;;;;;1.47;0.90;;;22.40;76.80;;;;;;5303373;26;20502;-71